createdAt,value
2018-11-13T00:00:10.386Z,1012.69
2018-11-13T00:01:10.402Z,1012.67
2018-11-13T00:02:10.424Z,1012.68
2018-11-13T00:03:10.434Z,1012.63
2018-11-13T00:04:10.449Z,1012.66
2018-11-13T00:05:10.465Z,1012.66
2018-11-13T00:06:10.477Z,1012.60
2018-11-13T00:07:10.494Z,1012.65
2018-11-13T00:08:10.507Z,1012.65
2018-11-13T00:09:10.522Z,1012.65
2018-11-13T00:10:10.541Z,1012.67
2018-11-13T00:11:10.570Z,1012.61
2018-11-13T00:12:10.564Z,1012.68
2018-11-13T00:13:10.583Z,1012.73
2018-11-13T00:14:10.598Z,1012.77
2018-11-13T00:15:10.616Z,1012.73
2018-11-13T00:16:10.629Z,1012.72
2018-11-13T00:17:10.655Z,1012.74
2018-11-13T00:18:10.663Z,1012.75
2018-11-13T00:19:10.674Z,1012.78
2018-11-13T00:20:10.690Z,1012.78
2018-11-13T00:21:10.708Z,1012.78
2018-11-13T00:22:10.718Z,1012.82
2018-11-13T00:23:10.743Z,1012.81
2018-11-13T00:24:10.755Z,1012.72
2018-11-13T00:25:10.776Z,1012.75
2018-11-13T00:26:10.777Z,1012.77
2018-11-13T00:27:10.794Z,1012.74
2018-11-13T00:28:10.807Z,1012.75
2018-11-13T00:29:10.826Z,1012.71
2018-11-13T00:30:10.840Z,1012.72
2018-11-13T00:31:10.858Z,1012.72
2018-11-13T00:32:10.872Z,1012.74
2018-11-13T00:33:10.888Z,1012.75
2018-11-13T00:34:10.898Z,1012.75
2018-11-13T00:35:10.918Z,1012.73
2018-11-13T00:36:10.940Z,1012.79
2018-11-13T00:37:10.949Z,1012.77
2018-11-13T00:38:10.962Z,1012.78
2018-11-13T00:39:11.036Z,1012.68
2018-11-13T00:40:10.993Z,1012.64
2018-11-13T00:41:11.009Z,1012.53
2018-11-13T00:42:11.040Z,1012.48
2018-11-13T00:43:11.046Z,1012.42
2018-11-13T00:44:11.090Z,1012.41
2018-11-13T00:45:11.075Z,1012.43
2018-11-13T00:46:11.100Z,1012.44
2018-11-13T00:47:11.100Z,1012.43
2018-11-13T00:48:11.151Z,1012.45
2018-11-13T00:49:11.153Z,1012.50
2018-11-13T00:50:11.146Z,1012.50
2018-11-13T00:51:11.158Z,1012.54
2018-11-13T00:52:11.177Z,1012.56
2018-11-13T00:53:11.190Z,1012.62
2018-11-13T00:54:11.206Z,1012.68
2018-11-13T00:55:11.216Z,1012.73
2018-11-13T00:56:11.250Z,1012.82
2018-11-13T00:57:11.376Z,1012.87
2018-11-13T00:58:11.266Z,1012.93
2018-11-13T00:59:11.371Z,1012.94
2018-11-13T01:00:11.362Z,1013.00
2018-11-13T01:01:11.309Z,1013.03
2018-11-13T01:02:11.324Z,1013.03
2018-11-13T01:03:11.340Z,1013.04
2018-11-13T01:04:11.353Z,1013.05
2018-11-13T01:05:11.447Z,1013.08
2018-11-13T01:06:11.388Z,1013.06
2018-11-13T01:07:11.400Z,1013.10
2018-11-13T01:08:11.462Z,1013.14
2018-11-13T01:09:11.438Z,1013.12
2018-11-13T01:10:11.443Z,1013.15
2018-11-13T01:11:11.460Z,1013.17
2018-11-13T01:12:11.476Z,1013.15
2018-11-13T01:13:11.491Z,1013.18
2018-11-13T01:14:11.504Z,1013.19
2018-11-13T01:15:11.524Z,1013.22
2018-11-13T01:16:11.536Z,1013.26
2018-11-13T01:17:11.553Z,1013.30
2018-11-13T01:18:11.571Z,1013.40
2018-11-13T01:19:11.580Z,1013.45
2018-11-13T01:20:11.597Z,1013.46
2018-11-13T01:21:11.618Z,1013.44
2018-11-13T01:22:11.625Z,1013.43
2018-11-13T01:23:11.643Z,1013.34
2018-11-13T01:24:11.662Z,1013.35
2018-11-13T01:25:11.671Z,1013.33
2018-11-13T01:26:11.714Z,1013.31
2018-11-13T01:27:11.704Z,1013.30
2018-11-13T01:28:11.732Z,1013.28
2018-11-13T01:29:11.732Z,1013.23
2018-11-13T01:30:11.745Z,1013.17
2018-11-13T01:31:11.760Z,1013.16
2018-11-13T01:32:11.779Z,1013.18
2018-11-13T01:33:11.802Z,1013.18
2018-11-13T01:34:11.811Z,1013.16
2018-11-13T01:35:11.835Z,1013.14
2018-11-13T01:36:11.853Z,1013.17
2018-11-13T01:37:11.853Z,1013.19
2018-11-13T01:38:11.877Z,1013.23
2018-11-13T01:39:11.889Z,1013.26
2018-11-13T01:40:11.902Z,1013.27
2018-11-13T01:41:11.918Z,1013.25
2018-11-13T01:42:11.929Z,1013.27
2018-11-13T01:43:11.946Z,1013.28
2018-11-13T01:44:11.959Z,1013.26
2018-11-13T01:45:11.976Z,1013.23
2018-11-13T01:46:11.990Z,1013.16
2018-11-13T01:47:12.009Z,1013.22
2018-11-13T01:48:12.021Z,1013.10
2018-11-13T01:49:12.035Z,1013.09
2018-11-13T01:50:12.046Z,1013.11
2018-11-13T01:51:12.066Z,1013.07
2018-11-13T01:52:12.080Z,1013.00
2018-11-13T01:53:12.096Z,1012.97
2018-11-13T01:54:12.174Z,1012.97
2018-11-13T01:55:12.124Z,1012.92
2018-11-13T01:56:12.141Z,1012.95
2018-11-13T01:57:12.559Z,1012.90
2018-11-13T01:58:12.171Z,1012.91
2018-11-13T01:59:12.198Z,1012.92
2018-11-13T02:00:12.209Z,1013.01
2018-11-13T02:01:12.241Z,1013.05
2018-11-13T02:02:12.227Z,1013.08
2018-11-13T02:03:12.249Z,1013.11
2018-11-13T02:04:12.262Z,1013.11
2018-11-13T02:05:12.283Z,1013.13
2018-11-13T02:06:12.291Z,1013.15
2018-11-13T02:07:12.312Z,1013.22
2018-11-13T02:08:12.320Z,1013.24
2018-11-13T02:09:12.337Z,1013.28
2018-11-13T02:10:12.361Z,1013.31
2018-11-13T02:11:12.363Z,1013.33
2018-11-13T02:12:12.391Z,1013.32
2018-11-13T02:13:12.401Z,1013.28
2018-11-13T02:14:12.413Z,1013.29
2018-11-13T02:15:12.428Z,1013.24
2018-11-13T02:16:12.444Z,1013.31
2018-11-13T02:17:12.458Z,1013.32
2018-11-13T02:18:12.471Z,1013.42
2018-11-13T02:19:12.490Z,1013.41
2018-11-13T02:20:12.503Z,1013.42
2018-11-13T02:21:12.516Z,1013.40
2018-11-13T02:22:12.539Z,1013.39
2018-11-13T02:23:12.547Z,1013.36
2018-11-13T02:24:12.564Z,1013.31
2018-11-13T02:25:12.580Z,1013.24
2018-11-13T02:26:12.596Z,1013.21
2018-11-13T02:27:12.604Z,1013.24
2018-11-13T02:28:12.625Z,1013.29
2018-11-13T02:29:12.638Z,1013.23
2018-11-13T02:30:12.657Z,1013.26
2018-11-13T02:31:12.674Z,1013.26
2018-11-13T02:32:12.689Z,1013.24
2018-11-13T02:33:12.705Z,1013.21
2018-11-13T02:34:12.714Z,1013.24
2018-11-13T02:35:12.754Z,1013.28
2018-11-13T02:36:12.744Z,1013.29
2018-11-13T02:37:12.759Z,1013.26
2018-11-13T02:38:12.775Z,1013.17
2018-11-13T02:39:12.793Z,1013.12
2018-11-13T02:40:12.812Z,1013.05
2018-11-13T02:41:12.821Z,1013.01
2018-11-13T02:42:12.837Z,1013.03
2018-11-13T02:43:12.857Z,1013.04
2018-11-13T02:44:12.868Z,1013.04
2018-11-13T02:45:12.884Z,1013.03
2018-11-13T02:46:12.901Z,1013.03
2018-11-13T02:47:13.216Z,1013.04
2018-11-13T02:48:12.927Z,1013.07
2018-11-13T02:49:12.943Z,1013.05
2018-11-13T02:50:12.956Z,1012.98
2018-11-13T02:51:12.976Z,1012.99
2018-11-13T02:52:12.991Z,1012.95
2018-11-13T02:53:13.004Z,1012.80
2018-11-13T02:54:13.018Z,1012.79
2018-11-13T02:55:13.042Z,1012.84
2018-11-13T02:56:13.048Z,1012.79
2018-11-13T02:57:13.064Z,1012.83
2018-11-13T02:58:13.090Z,1012.86
2018-11-13T02:59:13.091Z,1012.94
2018-11-13T03:00:13.110Z,1012.89
2018-11-13T03:01:13.126Z,1012.94
2018-11-13T03:02:13.136Z,1012.98
2018-11-13T03:03:13.153Z,1012.99
2018-11-13T03:04:13.174Z,1013.08
2018-11-13T03:05:13.185Z,1013.10
2018-11-13T03:06:13.200Z,1013.10
2018-11-13T03:07:13.229Z,1013.13
2018-11-13T03:08:13.230Z,1013.10
2018-11-13T03:38:15.210Z,1013.29
2018-11-13T03:39:15.203Z,1013.21
2018-11-13T03:41:07.128Z,1013.22
2018-11-13T03:42:07.128Z,1013.13
2018-11-13T03:43:59.073Z,1013.13
2018-11-13T03:44:59.067Z,1013.14
2018-11-13T03:46:51.002Z,1013.14
2018-11-13T03:47:50.991Z,1013.09
2018-11-13T03:49:42.899Z,1013.19
2018-11-13T03:50:42.905Z,1013.23
2018-11-13T03:52:34.855Z,1013.29
2018-11-13T03:53:34.839Z,1013.23
2018-11-13T03:55:26.753Z,1013.19
2018-11-13T03:56:26.763Z,1013.20
2018-11-13T03:58:18.712Z,1013.28
2018-11-13T03:59:18.698Z,1013.21
2018-11-13T04:01:10.624Z,1013.17
2018-11-13T04:02:10.641Z,1013.24
2018-11-13T04:04:02.565Z,1013.36
2018-11-13T04:05:02.554Z,1013.46
2018-11-13T04:06:54.882Z,1013.53
2018-11-13T04:07:54.480Z,1013.42
2018-11-13T04:09:46.414Z,1013.17
2018-11-13T04:10:46.421Z,1013.09
2018-11-13T04:12:38.859Z,1013.20
2018-11-13T04:13:38.849Z,1013.22
2018-11-13T04:15:30.755Z,1013.24
2018-11-13T04:16:30.768Z,1013.19
2018-11-13T04:18:22.720Z,1013.14
2018-11-13T04:19:22.730Z,1013.14
2018-11-13T04:21:14.638Z,1013.11
2018-11-13T04:22:14.645Z,1013.21
2018-11-13T04:24:06.603Z,1013.33
2018-11-13T04:25:06.578Z,1013.31
2018-11-13T04:26:58.496Z,1013.31
2018-11-13T04:27:58.497Z,1013.25
2018-11-13T04:29:50.458Z,1013.35
2018-11-13T04:30:50.515Z,1013.25
2018-11-13T04:32:42.384Z,1013.28
2018-11-13T04:33:42.361Z,1013.36
2018-11-13T04:35:34.295Z,1013.33
2018-11-13T04:36:34.304Z,1013.34
2018-11-13T04:38:26.234Z,1013.23
2018-11-13T04:39:26.230Z,1013.24
2018-11-13T04:41:18.154Z,1013.21
2018-11-13T04:42:18.163Z,1013.24
2018-11-13T04:44:10.112Z,1013.24
2018-11-13T04:45:10.098Z,1013.29
2018-11-13T04:47:02.039Z,1013.38
2018-11-13T04:48:02.039Z,1013.45
2018-11-13T04:49:53.992Z,1013.50
2018-11-13T04:50:53.987Z,1013.54
2018-11-13T04:52:45.920Z,1013.59
2018-11-13T04:53:45.908Z,1013.58
2018-11-13T04:55:37.856Z,1013.62
2018-11-13T04:56:37.865Z,1013.62
2018-11-13T04:58:29.800Z,1013.60
2018-11-13T04:59:29.792Z,1013.63
2018-11-13T05:01:21.718Z,1013.64
2018-11-13T05:02:21.730Z,1013.66
2018-11-13T05:04:13.652Z,1013.64
2018-11-13T05:05:13.647Z,1013.65
2018-11-13T05:07:05.559Z,1013.64
2018-11-13T05:08:05.568Z,1013.68
2018-11-13T05:09:57.544Z,1013.69
2018-11-13T05:10:57.498Z,1013.72
2018-11-13T05:12:49.443Z,1013.80
2018-11-13T05:13:49.431Z,1013.75
2018-11-13T05:15:41.346Z,1013.82
2018-11-13T05:16:41.360Z,1013.79
2018-11-13T05:18:33.286Z,1013.86
2018-11-13T05:19:33.275Z,1013.86
2018-11-13T05:21:25.190Z,1013.90
2018-11-13T05:22:25.206Z,1013.85
2018-11-13T05:24:17.134Z,1013.83
2018-11-13T05:25:17.137Z,1013.87
2018-11-13T05:27:09.066Z,1013.94
2018-11-13T05:28:09.074Z,1013.89
2018-11-13T05:30:01.025Z,1013.88
2018-11-13T05:31:01.017Z,1013.89
2018-11-13T05:32:52.956Z,1013.92
2018-11-13T05:33:52.949Z,1013.92
2018-11-13T05:35:44.884Z,1013.88
2018-11-13T05:36:44.891Z,1013.95
2018-11-13T05:38:36.828Z,1014.02
2018-11-13T05:39:36.812Z,1014.00
2018-11-13T05:41:28.743Z,1013.99
2018-11-13T05:42:28.739Z,1014.01
2018-11-13T05:44:20.678Z,1014.02
2018-11-13T05:45:20.659Z,1014.05
2018-11-13T05:47:12.647Z,1014.08
2018-11-13T05:48:12.589Z,1014.09
2018-11-13T05:50:04.521Z,1014.17
2018-11-13T05:51:04.507Z,1014.21
2018-11-13T05:52:56.433Z,1014.20
2018-11-13T05:53:56.439Z,1014.19
2018-11-13T05:55:48.364Z,1014.22
2018-11-13T05:56:48.356Z,1014.27
2018-11-13T05:58:40.293Z,1014.27
2018-11-13T05:59:40.316Z,1014.30
2018-11-13T06:01:32.193Z,1014.29
2018-11-13T06:02:32.205Z,1014.30
2018-11-13T06:04:24.167Z,1014.31
2018-11-13T06:05:24.148Z,1014.26
2018-11-13T06:07:16.053Z,1014.26
2018-11-13T06:08:16.064Z,1014.25
2018-11-13T06:10:08.026Z,1014.31
2018-11-13T06:11:08.077Z,1014.31
2018-11-13T06:12:59.918Z,1014.40
2018-11-13T06:13:59.967Z,1014.46
2018-11-13T06:15:51.870Z,1014.45
2018-11-13T06:16:51.856Z,1014.49
2018-11-13T06:18:43.836Z,1014.54
2018-11-13T06:19:43.809Z,1014.59
2018-11-13T06:21:35.719Z,1014.60
2018-11-13T06:22:35.727Z,1014.56
2018-11-13T06:24:27.666Z,1014.57
2018-11-13T06:25:27.650Z,1014.65
2018-11-13T06:26:27.664Z,1014.66
2018-11-13T06:27:27.696Z,1014.70
2018-11-13T06:28:27.693Z,1014.72
2018-11-13T06:29:27.752Z,1014.73
2018-11-13T06:30:27.725Z,1014.80
2018-11-13T06:31:27.740Z,1014.84
2018-11-13T06:32:27.751Z,1014.81
2018-11-13T06:33:27.770Z,1014.85
2018-11-13T06:34:27.789Z,1014.88
2018-11-13T06:35:27.809Z,1014.90
2018-11-13T06:36:27.815Z,1014.96
2018-11-13T06:37:27.830Z,1015.01
2018-11-13T06:38:27.843Z,1015.00
2018-11-13T06:39:27.860Z,1015.01
2018-11-13T06:40:27.874Z,1015.08
2018-11-13T06:41:27.892Z,1015.09
2018-11-13T06:42:27.901Z,1015.18
2018-11-13T06:43:27.917Z,1015.18
2018-11-13T06:44:27.933Z,1015.22
2018-11-13T06:45:27.948Z,1015.21
2018-11-13T06:46:27.962Z,1015.18
2018-11-13T06:47:27.986Z,1015.22
2018-11-13T06:48:27.995Z,1015.19
2018-11-13T06:49:28.025Z,1015.20
2018-11-13T06:50:28.026Z,1015.21
2018-11-13T06:51:28.046Z,1015.22
2018-11-13T06:52:28.056Z,1015.24
2018-11-13T06:53:28.066Z,1015.27
2018-11-13T06:54:28.090Z,1015.24
2018-11-13T06:55:28.100Z,1015.26
2018-11-13T06:56:28.114Z,1015.34
2018-11-13T06:57:28.131Z,1015.32
2018-11-13T06:58:28.144Z,1015.33
2018-11-13T06:59:28.160Z,1015.33
2018-11-13T07:00:28.175Z,1015.30
2018-11-13T07:01:28.192Z,1015.34
2018-11-13T07:02:28.211Z,1015.38
2018-11-13T07:03:28.237Z,1015.38
2018-11-13T07:04:28.237Z,1015.41
2018-11-13T07:05:28.257Z,1015.45
2018-11-13T07:06:28.265Z,1015.41
2018-11-13T07:07:28.300Z,1015.43
2018-11-13T07:08:28.295Z,1015.39
2018-11-13T07:09:28.322Z,1015.43
2018-11-13T07:10:28.334Z,1015.38
2018-11-13T07:11:28.342Z,1015.42
2018-11-13T07:12:28.368Z,1015.42
2018-11-13T07:13:28.385Z,1015.41
2018-11-13T07:14:28.394Z,1015.44
2018-11-13T07:15:28.414Z,1015.44
2018-11-13T07:16:28.421Z,1015.48
2018-11-13T07:17:28.442Z,1015.47
2018-11-13T07:18:28.511Z,1015.53
2018-11-13T07:19:28.469Z,1015.54
2018-11-13T07:20:28.483Z,1015.53
2018-11-13T07:21:28.498Z,1015.53
2018-11-13T07:22:28.513Z,1015.58
2018-11-13T07:23:28.530Z,1015.60
2018-11-13T07:24:28.543Z,1015.63
2018-11-13T07:25:28.651Z,1015.63
2018-11-13T07:26:28.576Z,1015.63
2018-11-13T07:27:28.653Z,1015.64
2018-11-13T07:28:28.620Z,1015.66
2018-11-13T07:29:28.620Z,1015.66
2018-11-13T07:30:28.654Z,1015.68
2018-11-13T07:31:28.653Z,1015.67
2018-11-13T07:32:28.666Z,1015.66
2018-11-13T07:33:28.681Z,1015.65
2018-11-13T07:34:28.770Z,1015.70
2018-11-13T07:35:28.713Z,1015.64
2018-11-13T07:36:28.729Z,1015.67
2018-11-13T07:37:28.743Z,1015.70
2018-11-13T07:38:28.758Z,1015.65
2018-11-13T07:39:28.778Z,1015.64
2018-11-13T07:40:28.789Z,1015.62
2018-11-13T07:41:28.803Z,1015.65
2018-11-13T07:42:28.822Z,1015.65
2018-11-13T07:43:28.833Z,1015.66
2018-11-13T07:44:28.850Z,1015.64
2018-11-13T07:45:28.867Z,1015.65
2018-11-13T07:46:28.942Z,1015.73
2018-11-13T07:47:28.976Z,1015.64
2018-11-13T07:48:28.915Z,1015.75
2018-11-13T07:49:28.926Z,1015.75
2018-11-13T07:50:28.943Z,1015.72
2018-11-13T07:51:28.977Z,1015.74
2018-11-13T07:52:28.981Z,1015.76
2018-11-13T07:53:28.990Z,1015.78
2018-11-13T07:54:29.066Z,1015.78
2018-11-13T07:55:29.017Z,1015.77
2018-11-13T07:56:29.039Z,1015.81
2018-11-13T07:57:29.048Z,1015.84
2018-11-13T07:58:29.093Z,1015.79
2018-11-13T07:59:29.083Z,1015.85
2018-11-13T08:00:29.105Z,1015.84
2018-11-13T08:01:29.111Z,1015.82
2018-11-13T08:02:29.139Z,1015.80
2018-11-13T08:03:29.189Z,1015.81
2018-11-13T08:04:29.190Z,1015.80
2018-11-13T08:05:29.173Z,1015.86
2018-11-13T08:06:29.245Z,1015.84
2018-11-13T08:07:29.213Z,1015.84
2018-11-13T08:08:29.219Z,1015.86
2018-11-13T08:09:29.296Z,1015.89
2018-11-13T08:10:29.255Z,1015.90
2018-11-13T08:11:29.273Z,1015.89
2018-11-13T08:12:29.281Z,1015.98
2018-11-13T08:13:29.361Z,1015.98
2018-11-13T08:14:29.315Z,1015.97
2018-11-13T08:15:29.344Z,1015.97
2018-11-13T08:16:29.381Z,1015.98
2018-11-13T08:17:29.362Z,1015.99
2018-11-13T08:18:29.442Z,1016.00
2018-11-13T08:19:29.403Z,1016.01
2018-11-13T08:20:29.409Z,1015.99
2018-11-13T08:21:29.425Z,1016.01
2018-11-13T08:22:29.443Z,1016.02
2018-11-13T08:23:29.461Z,1016.03
2018-11-13T08:24:29.471Z,1016.03
2018-11-13T08:25:29.495Z,1016.00
2018-11-13T08:26:29.538Z,1016.03
2018-11-13T08:27:29.526Z,1016.02
2018-11-13T08:28:29.540Z,1016.07
2018-11-13T08:29:29.703Z,1016.05
2018-11-13T08:30:29.567Z,1016.15
2018-11-13T08:31:29.687Z,1016.09
2018-11-13T08:32:29.606Z,1016.21
2018-11-13T08:33:29.638Z,1016.11
2018-11-13T08:34:29.644Z,1016.14
2018-11-13T08:35:29.660Z,1016.18
2018-11-13T08:36:29.663Z,1016.21
2018-11-13T08:37:29.683Z,1016.26
2018-11-13T08:38:29.703Z,1016.26
2018-11-13T08:39:29.717Z,1016.33
2018-11-13T08:40:29.727Z,1016.33
2018-11-13T08:41:29.757Z,1016.35
2018-11-13T08:42:29.757Z,1016.36
2018-11-13T08:43:29.781Z,1016.33
2018-11-13T08:44:29.803Z,1016.40
2018-11-13T08:45:29.823Z,1016.47
2018-11-13T08:46:29.823Z,1016.43
2018-11-13T08:47:29.853Z,1016.46
2018-11-13T08:48:29.867Z,1016.43
2018-11-13T08:49:29.892Z,1016.42
2018-11-13T08:50:30.005Z,1016.42
2018-11-13T08:51:29.915Z,1016.47
2018-11-13T08:52:29.928Z,1016.47
2018-11-13T08:53:29.940Z,1016.47
2018-11-13T08:54:29.988Z,1016.47
2018-11-13T08:55:29.974Z,1016.47
2018-11-13T08:56:29.989Z,1016.48
2018-11-13T08:57:30.005Z,1016.49
2018-11-13T08:58:30.091Z,1016.53
2018-11-13T08:59:30.106Z,1016.54
2018-11-13T09:00:30.055Z,1016.51
2018-11-13T09:01:30.070Z,1016.46
2018-11-13T09:02:30.088Z,1016.51
2018-11-13T09:03:30.116Z,1016.50
2018-11-13T09:04:30.128Z,1016.55
2018-11-13T09:05:30.145Z,1016.48
2018-11-13T09:06:30.161Z,1016.49
2018-11-13T09:07:30.179Z,1016.54
2018-11-13T09:08:30.197Z,1016.54
2018-11-13T09:09:30.202Z,1016.48
2018-11-13T09:10:30.229Z,1016.49
2018-11-13T09:11:30.289Z,1016.48
2018-11-13T09:12:30.335Z,1016.52
2018-11-13T09:13:30.269Z,1016.54
2018-11-13T09:14:30.292Z,1016.47
2018-11-13T09:15:30.549Z,1016.46
2018-11-13T09:16:30.321Z,1016.45
2018-11-13T09:17:30.339Z,1016.43
2018-11-13T09:18:30.361Z,1016.51
2018-11-13T09:19:30.581Z,1016.43
2018-11-13T09:20:30.387Z,1016.49
2018-11-13T09:21:30.403Z,1016.48
2018-11-13T09:22:30.425Z,1016.43
2018-11-13T09:23:30.723Z,1016.47
2018-11-13T09:24:30.455Z,1016.37
2018-11-13T09:25:30.472Z,1016.43
2018-11-13T09:26:30.485Z,1016.40
2018-11-13T09:27:30.514Z,1016.43
2018-11-13T09:28:30.525Z,1016.36
2018-11-13T09:29:30.533Z,1016.44
2018-11-13T09:30:31.385Z,1016.38
2018-11-13T09:31:30.644Z,1016.49
2018-11-13T09:32:30.581Z,1016.43
2018-11-13T09:33:30.653Z,1016.38
2018-11-13T09:34:30.616Z,1016.40
2018-11-13T09:35:30.631Z,1016.45
2018-11-13T09:36:30.654Z,1016.51
2018-11-13T09:37:30.685Z,1016.52
2018-11-13T09:38:30.678Z,1016.57
2018-11-13T09:39:30.699Z,1016.54
2018-11-13T09:40:30.727Z,1016.54
2018-11-13T09:41:30.729Z,1016.52
2018-11-13T09:42:30.746Z,1016.58
2018-11-13T09:43:30.758Z,1016.55
2018-11-13T09:44:30.777Z,1016.60
2018-11-13T09:45:30.797Z,1016.63
2018-11-13T09:46:30.866Z,1016.65
2018-11-13T09:47:30.835Z,1016.70
2018-11-13T09:48:30.842Z,1016.67
2018-11-13T09:49:30.870Z,1016.73
2018-11-13T09:50:30.898Z,1016.77
2018-11-13T09:51:30.896Z,1016.58
2018-11-13T09:52:30.910Z,1016.69
2018-11-13T09:53:30.981Z,1016.71
2018-11-13T09:54:30.947Z,1016.68
2018-11-13T09:55:30.989Z,1016.77
2018-11-13T09:56:31.044Z,1016.76
2018-11-13T09:57:31.001Z,1016.69
2018-11-13T09:58:31.023Z,1016.72
2018-11-13T09:59:31.031Z,1016.75
2018-11-13T10:00:31.115Z,1016.75
2018-11-13T10:01:31.425Z,1016.79
2018-11-13T10:02:31.604Z,1016.75
2018-11-13T10:03:31.493Z,1016.85
2018-11-13T10:04:31.805Z,1016.83
2018-11-13T10:05:31.246Z,1016.87
2018-11-13T10:06:31.144Z,1016.81
2018-11-13T10:07:31.155Z,1016.91
2018-11-13T10:08:31.183Z,1016.86
2018-11-13T10:09:31.195Z,1016.95
2018-11-13T10:10:31.268Z,1016.92
2018-11-13T10:11:31.221Z,1016.87
2018-11-13T10:12:31.246Z,1016.93
2018-11-13T10:13:31.258Z,1016.94
2018-11-13T10:14:31.288Z,1016.87
2018-11-13T10:15:31.298Z,1016.92
2018-11-13T10:16:31.313Z,1016.97
2018-11-13T10:17:31.342Z,1016.93
2018-11-13T10:18:31.347Z,1016.93
2018-11-13T10:19:31.378Z,1016.92
2018-11-13T10:20:31.378Z,1016.94
2018-11-13T10:21:31.392Z,1016.97
2018-11-13T10:22:31.412Z,1017.00
2018-11-13T10:23:31.424Z,1016.95
2018-11-13T10:24:31.444Z,1016.97
2018-11-13T10:25:31.468Z,1017.00
2018-11-13T10:26:31.567Z,1017.02
2018-11-13T10:27:31.488Z,1016.98
2018-11-13T10:28:31.509Z,1016.94
2018-11-13T10:29:31.525Z,1016.97
2018-11-13T10:30:31.552Z,1017.02
2018-11-13T10:31:31.567Z,1016.97
2018-11-13T10:32:31.585Z,1016.95
2018-11-13T10:33:31.597Z,1016.95
2018-11-13T10:34:31.607Z,1016.93
2018-11-13T10:35:31.628Z,1017.05
2018-11-13T10:36:31.645Z,1017.04
2018-11-13T10:37:31.666Z,1017.05
2018-11-13T10:38:31.685Z,1016.92
2018-11-13T10:39:31.692Z,1017.01
2018-11-13T10:40:31.864Z,1017.05
2018-11-13T10:41:31.806Z,1017.08
2018-11-13T10:42:31.795Z,1017.06
2018-11-13T10:43:31.769Z,1017.15
2018-11-13T10:44:31.789Z,1017.10
2018-11-13T10:45:31.811Z,1017.12
2018-11-13T10:46:31.811Z,1017.15
2018-11-13T10:47:31.830Z,1017.20
2018-11-13T10:48:31.849Z,1017.22
2018-11-13T10:49:31.861Z,1017.21
2018-11-13T10:50:32.000Z,1017.18
2018-11-13T10:51:31.905Z,1017.26
2018-11-13T10:52:31.965Z,1017.29
2018-11-13T10:53:31.930Z,1017.27
2018-11-13T10:54:31.954Z,1017.27
2018-11-13T10:55:31.970Z,1017.20
2018-11-13T10:56:32.016Z,1017.19
2018-11-13T10:57:32.023Z,1017.24
2018-11-13T10:58:32.022Z,1017.21
2018-11-13T10:59:32.039Z,1017.29
2018-11-13T11:00:32.073Z,1017.27
2018-11-13T11:01:32.068Z,1017.25
2018-11-13T11:02:32.186Z,1017.21
2018-11-13T11:03:32.112Z,1017.16
2018-11-13T11:04:32.161Z,1017.20
2018-11-13T11:05:32.146Z,1017.19
2018-11-13T11:06:32.172Z,1017.22
2018-11-13T11:07:32.241Z,1017.24
2018-11-13T11:08:32.199Z,1017.29
2018-11-13T11:09:32.211Z,1017.29
2018-11-13T11:10:32.237Z,1017.32
2018-11-13T11:11:32.355Z,1017.44
2018-11-13T11:12:32.271Z,1017.29
2018-11-13T11:13:32.411Z,1017.23
2018-11-13T11:14:32.293Z,1017.33
2018-11-13T11:15:32.351Z,1017.38
2018-11-13T11:16:32.349Z,1017.40
2018-11-13T11:17:32.398Z,1017.37
2018-11-13T11:18:32.380Z,1017.36
2018-11-13T11:19:32.434Z,1017.42
2018-11-13T11:20:32.401Z,1017.50
2018-11-13T11:21:32.417Z,1017.44
2018-11-13T11:22:32.444Z,1017.47
2018-11-13T11:23:32.588Z,1017.45
2018-11-13T11:24:32.471Z,1017.47
2018-11-13T11:25:32.487Z,1017.46
2018-11-13T11:26:32.596Z,1017.38
2018-11-13T11:27:32.522Z,1017.47
2018-11-13T11:28:32.547Z,1017.44
2018-11-13T11:29:32.573Z,1017.54
2018-11-13T11:30:32.581Z,1017.48
2018-11-13T11:31:32.595Z,1017.56
2018-11-13T11:32:32.608Z,1017.60
2018-11-13T11:33:32.630Z,1017.52
2018-11-13T11:34:32.644Z,1017.62
2018-11-13T11:35:32.662Z,1017.58
2018-11-13T11:36:32.683Z,1017.66
2018-11-13T11:37:32.702Z,1017.65
2018-11-13T11:38:32.750Z,1017.58
2018-11-13T11:39:32.731Z,1017.55
2018-11-13T11:40:32.756Z,1017.61
2018-11-13T11:41:32.766Z,1017.58
2018-11-13T11:42:32.795Z,1017.63
2018-11-13T11:43:32.804Z,1017.65
2018-11-13T11:44:32.927Z,1017.59
2018-11-13T11:45:32.847Z,1017.66
2018-11-13T11:46:32.861Z,1017.61
2018-11-13T11:47:32.959Z,1017.58
2018-11-13T11:48:32.905Z,1017.60
2018-11-13T11:49:32.911Z,1017.56
2018-11-13T11:50:32.931Z,1017.56
2018-11-13T11:51:32.939Z,1017.62
2018-11-13T11:52:33.073Z,1017.57
2018-11-13T11:53:33.019Z,1017.63
2018-11-13T11:54:32.991Z,1017.61
2018-11-13T11:55:33.016Z,1017.65
2018-11-13T11:56:33.046Z,1017.60
2018-11-13T11:57:33.066Z,1017.63
2018-11-13T11:58:33.077Z,1017.69
2018-11-13T11:59:33.092Z,1017.77
2018-11-13T12:00:33.181Z,1017.71
2018-11-13T12:01:33.116Z,1017.76
2018-11-13T12:02:33.221Z,1017.80
2018-11-13T12:03:33.194Z,1017.75
2018-11-13T12:04:33.308Z,1017.71
2018-11-13T12:05:33.275Z,1017.68
2018-11-13T12:06:33.285Z,1017.68
2018-11-13T12:07:33.226Z,1017.79
2018-11-13T12:08:33.301Z,1017.77
2018-11-13T12:09:33.319Z,1017.76
2018-11-13T12:10:33.329Z,1017.77
2018-11-13T12:11:33.368Z,1017.78
2018-11-13T12:12:33.317Z,1017.74
2018-11-13T12:13:33.331Z,1017.77
2018-11-13T12:14:33.342Z,1017.80
2018-11-13T12:15:33.403Z,1017.82
2018-11-13T12:16:33.380Z,1017.77
2018-11-13T12:17:33.402Z,1017.84
2018-11-13T12:18:33.414Z,1017.80
2018-11-13T12:19:33.561Z,1017.91
2018-11-13T12:20:33.451Z,1017.91
2018-11-13T12:21:33.463Z,1017.91
2018-11-13T12:22:33.485Z,1017.92
2018-11-13T12:23:33.500Z,1017.98
2018-11-13T12:24:33.525Z,1017.99
2018-11-13T12:25:33.570Z,1018.01
2018-11-13T12:26:33.558Z,1018.03
2018-11-13T12:27:33.571Z,1017.96
2018-11-13T12:28:33.590Z,1017.98
2018-11-13T12:29:33.603Z,1018.02
2018-11-13T12:30:33.619Z,1018.05
2018-11-13T12:31:33.652Z,1018.10
2018-11-13T12:32:33.660Z,1018.02
2018-11-13T12:33:33.682Z,1018.06
2018-11-13T12:34:33.761Z,1018.07
2018-11-13T12:35:33.717Z,1018.09
2018-11-13T12:36:33.732Z,1018.07
2018-11-13T12:37:33.750Z,1018.07
2018-11-13T12:38:33.759Z,1018.09
2018-11-13T12:39:33.781Z,1018.16
2018-11-13T12:40:33.828Z,1018.15
2018-11-13T12:41:33.811Z,1018.16
2018-11-13T12:42:33.839Z,1018.16
2018-11-13T12:43:33.851Z,1018.19
2018-11-13T12:44:33.866Z,1018.23
2018-11-13T12:45:33.888Z,1018.21
2018-11-13T12:46:33.913Z,1018.21
2018-11-13T12:47:33.918Z,1018.23
2018-11-13T12:48:33.943Z,1018.26
2018-11-13T12:49:33.950Z,1018.26
2018-11-13T12:50:33.965Z,1018.30
2018-11-13T12:51:33.983Z,1018.26
2018-11-13T12:52:34.009Z,1018.33
2018-11-13T12:53:34.021Z,1018.26
2018-11-13T12:54:34.033Z,1018.28
2018-11-13T12:55:34.079Z,1018.30
2018-11-13T12:56:34.074Z,1018.26
2018-11-13T12:57:34.087Z,1018.32
2018-11-13T12:58:34.113Z,1018.41
2018-11-13T12:59:34.120Z,1018.42
2018-11-13T13:00:34.141Z,1018.41
2018-11-13T13:01:34.160Z,1018.45
2018-11-13T13:02:34.180Z,1018.45
2018-11-13T13:03:34.206Z,1018.49
2018-11-13T13:04:34.216Z,1018.44
2018-11-13T13:05:34.288Z,1018.48
2018-11-13T13:06:34.243Z,1018.48
2018-11-13T13:07:34.278Z,1018.54
2018-11-13T13:08:34.329Z,1018.54
2018-11-13T13:09:34.293Z,1018.51
2018-11-13T13:10:34.314Z,1018.55
2018-11-13T13:11:34.334Z,1018.57
2018-11-13T13:12:34.350Z,1018.64
2018-11-13T13:13:34.369Z,1018.62
2018-11-13T13:14:34.390Z,1018.57
2018-11-13T13:15:34.403Z,1018.63
2018-11-13T13:16:34.422Z,1018.63
2018-11-13T13:17:34.435Z,1018.64
2018-11-13T13:18:34.456Z,1018.64
2018-11-13T13:19:34.465Z,1018.64
2018-11-13T13:20:34.497Z,1018.63
2018-11-13T13:21:34.504Z,1018.59
2018-11-13T13:22:34.519Z,1018.68
2018-11-13T13:23:34.545Z,1018.66
2018-11-13T13:24:34.562Z,1018.67